Crossville, TN

9:42 AM CST on January 19, 2017 (GMT -0600)
Crossville Memorial-Whitson

Weather History for KCSV - January, 2014

Change the Weather History Date:

Thursday, January 2, 2014

  Actual Average Record
Temperature  
Mean Temperature 30 °F 36 °F  
Max Temperature 44 °F 44 °F 61 °F (2000)
Min Temperature 15 °F 27 °F 3 °F (1977)
Degree Days  
Heating Degree Days 36    
Month to date heating degree days  
Since 1 July heating degree days  
Cooling Degree Days 0    
Month to date cooling degree days  
Year to date cooling degree days  
Moisture  
Dew Point 26 °F    
Average Humidity 88    
Maximum Humidity 100    
Minimum Humidity 71    
Precipitation  
Precipitation 0.27 in 0.14 in 1.38 in (1996)
Month to date precipitation 0.29  
Year to date precipitation 0.29  
Sea Level Pressure  
Sea Level Pressure 29.95 in    
Wind  
Wind Speed 9 mph (WNW)    
Max Wind Speed 21 mph    
Max Gust Speed 33 mph    
Visibility 4 miles    
Events Rain , Snow    
T = Trace of Precipitation, MM = Missing Value Source: NWS Daily Summary

Daily Weather History Graph

Daily Weather History Graph

Search for Another Location

Airport or City:

Trip Planner

Search our weather history database for the weather conditions in past years. The results will help you decide how hot, cold, wet, or windy it might be!

Date:

Astronomy

Jan. 02, 2014 Rise Set
Actual Time 6:50 AM CST 4:38 PM CST
Civil Twilight 6:22 AM CST 5:06 PM CST
Nautical Twilight 5:50 AM CST 5:38 PM CST
Astronomical Twilight 5:19 AM CST 6:09 PM CST
Moon 7:35 AM CST (1/2) 6:29 PM CST (1/2)
Length of Visible Light 10h 43m
Length of Day
9h 47m
Waxing Crescent, 3% of the Moon is Illuminated
Jan 2
Waxing Crescent
Jan 7
First Quarter
Jan 15
Full
Jan 23
Last Quarter
Jan 30
New

Hourly Weather History & Observations

Time (CST) Temp. Windchill Dew Point Humidity Pressure Visibility Wind Dir Wind Speed Gust Speed Precip Events Conditions
12:53 AM 41.0 °F 37.1 °F 33.1 °F 73% 30.00 in 10.0 mi Variable 5.8 mph - N/A   Overcast
1:53 AM 42.1 °F 37.7 °F 36.0 °F 79% 29.96 in 10.0 mi South 6.9 mph 20.7 mph N/A   Overcast
2:37 AM 42.8 °F 39.3 °F 37.4 °F 81% 29.96 in 9.0 mi Variable 5.8 mph - 0.00 in Rain Light Rain
2:53 AM 42.1 °F 40.2 °F 37.0 °F 82% 29.96 in 10.0 mi Variable 3.5 mph - 0.00 in   Overcast
3:37 AM 41.0 °F - 39.2 °F 93% 29.93 in 2.5 mi Calm Calm - 0.05 in Rain Light Rain
3:53 AM 39.9 °F 37.8 °F 39.0 °F 97% 29.93 in 2.5 mi Variable 3.5 mph - 0.07 in Rain Light Rain
4:01 AM 39.2 °F - 39.2 °F 100% 29.92 in 3.0 mi Calm Calm - 0.01 in Rain Light Rain
4:14 AM 39.2 °F 35.9 °F 37.4 °F 93% 29.91 in 3.0 mi South 4.6 mph - 0.01 in Rain Light Rain
4:53 AM 39.9 °F - 37.9 °F 93% 29.91 in 2.5 mi Calm Calm - 0.03 in Rain Light Rain
5:08 AM 39.2 °F 34.2 °F 39.2 °F 100% 29.89 in 4.0 mi South 6.9 mph - 0.01 in   Overcast
5:41 AM 41.0 °F 38.0 °F 39.2 °F 93% 29.88 in 5.0 mi South 4.6 mph - 0.02 in Rain Light Rain
5:53 AM 41.0 °F 37.1 °F 39.0 °F 93% 29.89 in 5.0 mi South 5.8 mph - 0.03 in Rain Light Rain
6:25 AM 41.0 °F 37.1 °F 39.2 °F 93% 29.86 in 5.0 mi South 5.8 mph - 0.02 in Rain Light Rain
6:53 AM 41.0 °F 37.1 °F 39.0 °F 93% 29.85 in 7.0 mi South 5.8 mph - 0.03 in Rain Light Rain
7:53 AM 42.1 °F 39.2 °F 39.9 °F 92% 29.84 in 3.0 mi South 4.6 mph - 0.02 in Rain Light Rain
8:23 AM 42.8 °F 40.1 °F 41.0 °F 93% 29.83 in 2.5 mi Variable 4.6 mph - 0.00 in   Overcast
8:37 AM 42.8 °F - 41.0 °F 93% 29.83 in 5.0 mi Calm Calm - 0.00 in   Overcast
8:45 AM 42.8 °F 40.1 °F 41.0 °F 93% 29.83 in 1.8 mi South 4.6 mph - 0.00 in Rain Light Rain
8:53 AM 43.0 °F 40.3 °F 41.0 °F 93% 29.84 in 1.5 mi South 4.6 mph - 0.01 in Rain Light Rain
9:03 AM 42.8 °F 41.1 °F 41.0 °F 93% 29.82 in 2.0 mi South 3.5 mph - 0.00 in   Overcast
9:25 AM 42.8 °F 41.1 °F 41.0 °F 93% 29.82 in 1.8 mi SSW 3.5 mph - 0.00 in   Overcast
9:38 AM 42.8 °F 41.1 °F 42.8 °F 100% 29.81 in 2.5 mi SSW 3.5 mph - 0.00 in   Overcast
9:50 AM 42.8 °F 41.1 °F 42.8 °F 100% 29.80 in 1.5 mi SSW 3.5 mph - 0.01 in Rain Light Rain
9:53 AM 43.0 °F 41.3 °F 42.1 °F 97% 29.81 in 2.0 mi SW 3.5 mph - 0.01 in Rain Light Rain
10:01 AM 42.8 °F 39.3 °F 42.8 °F 100% 29.81 in 7.0 mi WSW 5.8 mph - 0.00 in   Overcast
10:09 AM 42.8 °F 39.3 °F 42.8 °F 100% 29.81 in 1.8 mi West 5.8 mph - 0.02 in Rain Rain
10:19 AM 44.6 °F 39.2 °F 42.8 °F 93% 29.81 in 3.0 mi West 10.4 mph 18.4 mph 0.04 in Rain Light Rain
10:35 AM 44.6 °F 38.1 °F 42.8 °F 93% 29.80 in 10.0 mi West 13.8 mph 23.0 mph 0.05 in   Overcast
10:42 AM 44.6 °F 37.8 °F 39.2 °F 81% 29.80 in 8.0 mi WNW 15.0 mph 29.9 mph 0.05 in   Overcast
10:53 AM 42.1 °F 35.2 °F 37.9 °F 85% 29.82 in 7.0 mi NW 12.7 mph 21.9 mph 0.05 in   Overcast
11:36 AM 39.2 °F 30.8 °F 35.6 °F 87% 29.81 in 9.0 mi WNW 15.0 mph 20.7 mph 0.01 in Rain Light Rain
11:44 AM 37.4 °F 29.8 °F 35.6 °F 93% 29.81 in 5.0 mi NW 11.5 mph 20.7 mph 0.01 in Rain Light Rain
11:53 AM 37.0 °F 27.4 °F 35.1 °F 93% 29.83 in 6.0 mi NW 17.3 mph 23.0 mph 0.01 in Rain Light Rain
12:53 PM 34.0 °F 26.0 °F 30.9 °F 89% 29.85 in 4.0 mi NW 10.4 mph 21.9 mph 0.01 in   Overcast
1:13 PM 32.0 °F 20.5 °F 30.2 °F 93% 29.84 in 2.0 mi NW 18.4 mph 27.6 mph 0.00 in Snow Light Snow
1:32 PM 30.2 °F 18.9 °F 28.4 °F 93% 29.85 in 1.5 mi NW 16.1 mph 21.9 mph 0.00 in Snow Light Snow
1:53 PM 30.0 °F 20.0 °F 27.0 °F 88% 29.88 in 1.5 mi NW 12.7 mph 21.9 mph 0.00 in Snow Light Snow
2:16 PM 28.4 °F 16.2 °F 26.6 °F 93% 29.88 in 3.0 mi WNW 17.3 mph 25.3 mph 0.00 in Snow Light Snow
2:27 PM 26.6 °F 14.3 °F 24.8 °F 93% 29.89 in 1.8 mi WNW 16.1 mph 29.9 mph 0.00 in Snow Light Snow
2:44 PM 26.6 °F 12.7 °F 24.8 °F 93% 29.91 in 3.0 mi NW 20.7 mph 29.9 mph 0.00 in Snow Light Snow
2:53 PM 25.0 °F 12.2 °F 23.0 °F 92% 29.94 in 4.0 mi NW 16.1 mph 31.1 mph 0.00 in   Overcast
3:03 PM 24.8 °F 10.7 °F 23.0 °F 93% 29.91 in 2.5 mi WNW 19.6 mph 28.8 mph N/A   Overcast
3:17 PM 24.8 °F 14.0 °F 21.2 °F 86% 29.93 in 4.0 mi NW 11.5 mph 27.6 mph N/A   Overcast
3:35 PM 23.0 °F 9.6 °F 21.2 °F 93% 29.94 in 3.0 mi NW 16.1 mph 26.5 mph N/A   Overcast
3:53 PM 21.9 °F 10.4 °F 19.9 °F 92% 29.99 in 3.0 mi NW 11.5 mph 25.3 mph N/A   Overcast
4:13 PM 21.2 °F 9.5 °F 19.4 °F 93% 29.97 in 1.8 mi NW 11.5 mph 21.9 mph 0.00 in Snow Light Snow
4:39 PM 21.2 °F 7.3 °F 17.6 °F 86% 29.98 in 1.0 mi NW 16.1 mph 25.3 mph 0.00 in Snow Light Snow
4:50 PM 19.4 °F 5.5 °F 17.6 °F 93% 29.98 in 1.2 mi NW 15.0 mph 24.2 mph 0.00 in Snow Light Snow
4:53 PM 19.9 °F 7.3 °F 17.1 °F 89% 30.03 in 1.2 mi NW 12.7 mph 24.2 mph 0.00 in Snow Light Snow
5:00 PM 19.4 °F 7.9 °F 17.6 °F 93% 29.99 in 1.0 mi WNW 10.4 mph 19.6 mph 0.00 in Snow Light Snow
5:17 PM 19.4 °F 4.5 °F 15.8 °F 86% 29.99 in 2.0 mi NW 17.3 mph 31.1 mph 0.00 in Snow Light Snow
5:29 PM 19.4 °F 6.0 °F 15.8 °F 86% 30.00 in 1.8 mi NW 13.8 mph 23.0 mph 0.00 in Snow Light Snow
5:39 PM 19.4 °F 6.0 °F 15.8 °F 86% 30.01 in 2.0 mi WNW 13.8 mph 29.9 mph 0.00 in Snow Light Snow
5:46 PM 19.4 °F 6.6 °F 15.8 °F 86% 30.01 in 1.5 mi NW 12.7 mph 21.9 mph 0.00 in Snow Light Snow
5:53 PM 19.0 °F 5.0 °F 15.1 °F 85% 30.06 in 1.5 mi WNW 15.0 mph 28.8 mph 0.00 in Snow Light Snow
6:11 PM 19.4 °F 4.5 °F 14.0 °F 80% 30.03 in 2.5 mi WNW 17.3 mph 31.1 mph 0.00 in Snow Light Snow
6:27 PM 19.4 °F 5.0 °F 14.0 °F 80% 30.04 in 1.8 mi WNW 16.1 mph 27.6 mph 0.00 in Snow Light Snow
6:34 PM 17.6 °F 3.2 °F 14.0 °F 86% 30.05 in 2.0 mi WNW 15.0 mph 23.0 mph 0.00 in Snow Light Snow
6:53 PM 18.0 °F 1.7 °F 12.9 °F 81% 30.10 in 2.0 mi NW 19.6 mph 31.1 mph 0.00 in Snow Light Snow
7:00 PM 17.6 °F 3.7 °F 14.0 °F 86% 30.06 in 1.8 mi NW 13.8 mph 31.1 mph 0.00 in Snow Light Snow
7:12 PM 17.6 °F 3.2 °F 14.0 °F 86% 30.06 in 2.0 mi NW 15.0 mph 25.3 mph 0.00 in Snow Light Snow
7:17 PM 17.6 °F 3.2 °F 14.0 °F 86% 30.06 in 1.2 mi NW 15.0 mph 25.3 mph 0.00 in Snow Light Snow
7:26 PM 17.6 °F 2.7 °F 14.0 °F 86% 30.07 in 0.8 mi NW 16.1 mph 24.2 mph 0.00 in Snow Light Snow
7:37 PM 17.6 °F 3.7 °F 12.2 °F 79% 30.07 in 1.5 mi NW 13.8 mph 26.5 mph 0.00 in Snow Light Snow
7:53 PM 17.1 °F 2.0 °F 12.0 °F 81% 30.13 in 1.5 mi NNW 16.1 mph 26.5 mph 0.00 in Snow Light Snow
8:02 PM 15.8 °F -1.1 °F 12.2 °F 86% 30.09 in 2.0 mi NW 19.6 mph 28.8 mph 0.00 in Snow Light Snow
8:13 PM 15.8 °F 0.9 °F 10.4 °F 79% 30.10 in 3.0 mi NW 15.0 mph 25.3 mph 0.00 in Snow Light Snow
8:53 PM 16.0 °F 1.1 °F 10.0 °F 77% 30.14 in 4.0 mi NNW 15.0 mph 25.3 mph 0.00 in Snow Light Snow
9:05 PM 15.8 °F 2.1 °F 10.4 °F 79% 30.10 in 2.0 mi NW 12.7 mph 24.2 mph 0.00 in Snow Light Snow
9:13 PM 15.8 °F -1.5 °F 10.4 °F 79% 30.10 in 1.8 mi NNW 20.7 mph 31.1 mph 0.00 in Snow Light Snow
9:18 PM 15.8 °F -0.6 °F 10.4 °F 79% 30.11 in 3.0 mi NW 18.4 mph 31.1 mph 0.00 in Snow Light Snow
9:25 PM 15.8 °F 0.3 °F 10.4 °F 79% 30.11 in 1.8 mi NNW 16.1 mph 33.4 mph 0.00 in Snow Light Snow
9:34 PM 15.8 °F 2.1 °F 10.4 °F 79% 30.11 in 1.2 mi NW 12.7 mph - 0.00 in Snow Light Snow
9:43 PM 15.8 °F -1.5 °F 10.4 °F 79% 30.11 in 2.0 mi NW 20.7 mph 32.2 mph 0.00 in Snow Light Snow
9:53 PM 16.0 °F -0.4 °F 9.0 °F 74% 30.17 in 4.0 mi NW 18.4 mph 29.9 mph 0.00 in Snow Light Snow
10:53 PM 15.1 °F -0.6 °F 9.0 °F 77% 30.20 in 8.0 mi NNW 16.1 mph 25.3 mph 0.00 in Snow Light Snow
11:53 PM 16.0 °F -0.4 °F 8.1 °F 71% 30.24 in 10.0 mi NW 18.4 mph 26.5 mph 0.00 in   Overcast